sensor_id;sensor_type;location;lat;lon;timestamp;temperature;humidity
19898;DHT22;10111;50.814;4.572;2022-09-09T00:01:58;15.60;99.90
19898;DHT22;10111;50.814;4.572;2022-09-09T00:04:28;15.60;99.90
19898;DHT22;10111;50.814;4.572;2022-09-09T00:06:59;15.60;99.90
19898;DHT22;10111;50.814;4.572;2022-09-09T00:09:31;15.60;99.90
19898;DHT22;10111;50.814;4.572;2022-09-09T00:12:12;15.60;99.90
19898;DHT22;10111;50.814;4.572;2022-09-09T00:25:42;15.50;99.90
19898;DHT22;10111;50.814;4.572;2022-09-09T00:28:18;15.50;99.90
19898;DHT22;10111;50.814;4.572;2022-09-09T00:30:44;15.60;99.90
19898;DHT22;10111;50.814;4.572;2022-09-09T00:33:14;15.50;99.90
19898;DHT22;10111;50.814;4.572;2022-09-09T00:35:44;15.50;99.90
19898;DHT22;10111;50.814;4.572;2022-09-09T00:38:19;15.50;99.90
19898;DHT22;10111;50.814;4.572;2022-09-09T00:43:36;15.50;99.90
19898;DHT22;10111;50.814;4.572;2022-09-09T00:52:07;15.80;99.90
19898;DHT22;10111;50.814;4.572;2022-09-09T00:57:42;15.80;99.90
19898;DHT22;10111;50.814;4.572;2022-09-09T01:00:30;15.80;99.90
19898;DHT22;10111;50.814;4.572;2022-09-09T01:11:37;15.80;99.90
19898;DHT22;10111;50.814;4.572;2022-09-09T01:14:23;16.00;99.90
19898;DHT22;10111;50.814;4.572;2022-09-09T01:16:54;15.90;99.90
19898;DHT22;10111;50.814;4.572;2022-09-09T01:27:49;15.90;99.90
19898;DHT22;10111;50.814;4.572;2022-09-09T01:30:17;15.90;99.90
19898;DHT22;10111;50.814;4.572;2022-09-09T01:32:48;15.90;99.90
19898;DHT22;10111;50.814;4.572;2022-09-09T01:35:53;15.80;99.90
19898;DHT22;10111;50.814;4.572;2022-09-09T01:38:21;15.90;99.90
19898;DHT22;10111;50.814;4.572;2022-09-09T01:40:47;15.80;99.90
19898;DHT22;10111;50.814;4.572;2022-09-09T01:43:13;15.80;99.90
19898;DHT22;10111;50.814;4.572;2022-09-09T01:45:40;15.80;99.90
19898;DHT22;10111;50.814;4.572;2022-09-09T01:48:08;15.80;99.90
19898;DHT22;10111;50.814;4.572;2022-09-09T01:50:33;15.80;99.90
19898;DHT22;10111;50.814;4.572;2022-09-09T01:52:59;15.70;99.90
19898;DHT22;10111;50.814;4.572;2022-09-09T01:55:33;15.80;99.90
19898;DHT22;10111;50.814;4.572;2022-09-09T02:01:07;15.70;99.90
19898;DHT22;10111;50.814;4.572;2022-09-09T02:03:35;15.70;99.90
19898;DHT22;10111;50.814;4.572;2022-09-09T02:11:21;15.80;99.90
19898;DHT22;10111;50.814;4.572;2022-09-09T02:13:49;15.80;99.90
19898;DHT22;10111;50.814;4.572;2022-09-09T02:16:33;15.80;99.90
19898;DHT22;10111;50.814;4.572;2022-09-09T02:19:02;15.80;99.90
19898;DHT22;10111;50.814;4.572;2022-09-09T02:21:31;15.80;99.90
19898;DHT22;10111;50.814;4.572;2022-09-09T02:23:59;15.80;99.90
19898;DHT22;10111;50.814;4.572;2022-09-09T02:26:26;16.00;99.90
19898;DHT22;10111;50.814;4.572;2022-09-09T02:28:55;15.80;99.90
19898;DHT22;10111;50.814;4.572;2022-09-09T02:31:24;15.80;99.90
19898;DHT22;10111;50.814;4.572;2022-09-09T02:33:56;15.80;99.90
19898;DHT22;10111;50.814;4.572;2022-09-09T02:36:24;15.80;99.90
19898;DHT22;10111;50.814;4.572;2022-09-09T02:38:51;15.80;99.90
19898;DHT22;10111;50.814;4.572;2022-09-09T02:41:32;15.80;99.90
19898;DHT22;10111;50.814;4.572;2022-09-09T02:43:59;15.70;99.90
19898;DHT22;10111;50.814;4.572;2022-09-09T02:52:14;15.80;99.90
19898;DHT22;10111;50.814;4.572;2022-09-09T02:54:42;15.80;99.90
19898;DHT22;10111;50.814;4.572;2022-09-09T02:57:14;15.80;99.90
19898;DHT22;10111;50.814;4.572;2022-09-09T02:59:43;15.80;99.90
19898;DHT22;10111;50.814;4.572;2022-09-09T03:02:10;15.80;99.90
19898;DHT22;10111;50.814;4.572;2022-09-09T03:04:37;15.80;99.90
19898;DHT22;10111;50.814;4.572;2022-09-09T03:07:03;16.00;99.90
19898;DHT22;10111;50.814;4.572;2022-09-09T03:09:29;15.80;99.90
19898;DHT22;10111;50.814;4.572;2022-09-09T03:11:55;15.70;99.90
19898;DHT22;10111;50.814;4.572;2022-09-09T03:14:21;15.70;99.90
19898;DHT22;10111;50.814;4.572;2022-09-09T03:16:50;15.70;99.90
19898;DHT22;10111;50.814;4.572;2022-09-09T03:19:16;15.70;99.90
19898;DHT22;10111;50.814;4.572;2022-09-09T03:21:44;15.70;99.90
19898;DHT22;10111;50.814;4.572;2022-09-09T03:24:10;15.60;99.90
19898;DHT22;10111;50.814;4.572;2022-09-09T03:26:35;15.80;99.90
19898;DHT22;10111;50.814;4.572;2022-09-09T03:29:03;15.60;99.90
19898;DHT22;10111;50.814;4.572;2022-09-09T03:31:34;15.60;99.90
19898;DHT22;10111;50.814;4.572;2022-09-09T03:34:02;15.60;99.90
19898;DHT22;10111;50.814;4.572;2022-09-09T03:36:28;15.80;99.90
19898;DHT22;10111;50.814;4.572;2022-09-09T03:38:55;15.60;99.90
19898;DHT22;10111;50.814;4.572;2022-09-09T03:41:22;15.70;99.90
19898;DHT22;10111;50.814;4.572;2022-09-09T03:43:52;15.60;99.90
19898;DHT22;10111;50.814;4.572;2022-09-09T03:46:20;15.60;99.90
19898;DHT22;10111;50.814;4.572;2022-09-09T03:48:45;15.60;99.90
19898;DHT22;10111;50.814;4.572;2022-09-09T03:51:11;15.70;99.90
19898;DHT22;10111;50.814;4.572;2022-09-09T03:53:37;15.60;99.90
19898;DHT22;10111;50.814;4.572;2022-09-09T03:56:04;15.70;99.90
19898;DHT22;10111;50.814;4.572;2022-09-09T03:58:35;15.60;99.90
19898;DHT22;10111;50.814;4.572;2022-09-09T04:01:07;15.60;99.90
19898;DHT22;10111;50.814;4.572;2022-09-09T04:03:34;15.60;99.90
19898;DHT22;10111;50.814;4.572;2022-09-09T04:06:02;15.50;99.90
19898;DHT22;10111;50.814;4.572;2022-09-09T04:08:29;15.50;99.90
19898;DHT22;10111;50.814;4.572;2022-09-09T04:10:56;15.60;99.90
19898;DHT22;10111;50.814;4.572;2022-09-09T04:13:23;15.50;99.90
19898;DHT22;10111;50.814;4.572;2022-09-09T04:15:54;15.50;99.90
19898;DHT22;10111;50.814;4.572;2022-09-09T04:18:20;15.60;99.90
19898;DHT22;10111;50.814;4.572;2022-09-09T04:20:48;15.70;99.90
19898;DHT22;10111;50.814;4.572;2022-09-09T04:23:14;15.60;99.90
19898;DHT22;10111;50.814;4.572;2022-09-09T04:25:47;15.70;99.90
19898;DHT22;10111;50.814;4.572;2022-09-09T04:28:14;15.80;99.90
19898;DHT22;10111;50.814;4.572;2022-09-09T04:30:40;15.80;99.90
19898;DHT22;10111;50.814;4.572;2022-09-09T04:33:07;15.70;99.90
19898;DHT22;10111;50.814;4.572;2022-09-09T04:35:33;15.90;99.90
19898;DHT22;10111;50.814;4.572;2022-09-09T04:37:58;15.70;99.90
19898;DHT22;10111;50.814;4.572;2022-09-09T04:40:24;15.70;99.90
19898;DHT22;10111;50.814;4.572;2022-09-09T04:42:50;15.60;99.90
19898;DHT22;10111;50.814;4.572;2022-09-09T04:45:16;15.90;99.90
19898;DHT22;10111;50.814;4.572;2022-09-09T04:47:42;15.60;99.90
19898;DHT22;10111;50.814;4.572;2022-09-09T04:50:08;15.60;99.90
19898;DHT22;10111;50.814;4.572;2022-09-09T04:52:37;15.50;99.90
19898;DHT22;10111;50.814;4.572;2022-09-09T04:55:03;15.50;99.90
19898;DHT22;10111;50.814;4.572;2022-09-09T04:57:29;15.40;99.90
19898;DHT22;10111;50.814;4.572;2022-09-09T04:59:57;15.50;99.90
19898;DHT22;10111;50.814;4.572;2022-09-09T05:02:23;15.80;99.90
19898;DHT22;10111;50.814;4.572;2022-09-09T05:04:48;15.50;99.90
19898;DHT22;10111;50.814;4.572;2022-09-09T05:07:15;15.50;99.90
19898;DHT22;10111;50.814;4.572;2022-09-09T05:09:41;15.40;99.90
19898;DHT22;10111;50.814;4.572;2022-09-09T05:12:06;15.40;99.90
19898;DHT22;10111;50.814;4.572;2022-09-09T05:14:33;15.70;99.90
19898;DHT22;10111;50.814;4.572;2022-09-09T05:17:01;15.50;99.90
19898;DHT22;10111;50.814;4.572;2022-09-09T05:19:27;15.60;99.90
19898;DHT22;10111;50.814;4.572;2022-09-09T05:21:52;15.60;99.90
19898;DHT22;10111;50.814;4.572;2022-09-09T05:24:18;15.60;99.90
19898;DHT22;10111;50.814;4.572;2022-09-09T05:26:44;15.70;99.90
19898;DHT22;10111;50.814;4.572;2022-09-09T05:29:09;15.70;99.90
19898;DHT22;10111;50.814;4.572;2022-09-09T05:31:35;15.70;99.90
19898;DHT22;10111;50.814;4.572;2022-09-09T05:34:01;15.70;99.90
19898;DHT22;10111;50.814;4.572;2022-09-09T05:36:26;15.70;99.90
19898;DHT22;10111;50.814;4.572;2022-09-09T05:38:52;15.80;99.90
19898;DHT22;10111;50.814;4.572;2022-09-09T05:41:21;15.90;99.90
19898;DHT22;10111;50.814;4.572;2022-09-09T05:43:48;15.90;99.90
19898;DHT22;10111;50.814;4.572;2022-09-09T05:46:22;15.90;99.90
19898;DHT22;10111;50.814;4.572;2022-09-09T05:48:50;16.00;99.90
19898;DHT22;10111;50.814;4.572;2022-09-09T05:51:27;16.00;99.90
19898;DHT22;10111;50.814;4.572;2022-09-09T05:53:55;16.10;99.90
19898;DHT22;10111;50.814;4.572;2022-09-09T05:56:25;16.10;99.90
19898;DHT22;10111;50.814;4.572;2022-09-09T05:58:52;16.20;99.90
19898;DHT22;10111;50.814;4.572;2022-09-09T06:01:23;16.20;99.90
19898;DHT22;10111;50.814;4.572;2022-09-09T06:03:50;16.40;99.90
19898;DHT22;10111;50.814;4.572;2022-09-09T06:06:19;16.20;99.90
19898;DHT22;10111;50.814;4.572;2022-09-09T06:08:50;16.20;99.90
19898;DHT22;10111;50.814;4.572;2022-09-09T06:11:21;16.20;99.90
19898;DHT22;10111;50.814;4.572;2022-09-09T06:13:47;16.20;99.90
19898;DHT22;10111;50.814;4.572;2022-09-09T06:16:18;16.20;99.90
19898;DHT22;10111;50.814;4.572;2022-09-09T06:18:44;16.20;99.90
19898;DHT22;10111;50.814;4.572;2022-09-09T06:21:20;16.30;99.90
19898;DHT22;10111;50.814;4.572;2022-09-09T06:23:47;16.30;99.90
19898;DHT22;10111;50.814;4.572;2022-09-09T06:26:18;16.30;99.90
19898;DHT22;10111;50.814;4.572;2022-09-09T06:28:45;16.20;99.90
19898;DHT22;10111;50.814;4.572;2022-09-09T06:31:14;16.20;99.90
19898;DHT22;10111;50.814;4.572;2022-09-09T06:33:43;16.30;99.90
19898;DHT22;10111;50.814;4.572;2022-09-09T06:36:15;16.30;99.90
19898;DHT22;10111;50.814;4.572;2022-09-09T06:38:42;16.40;99.90
19898;DHT22;10111;50.814;4.572;2022-09-09T06:41:09;16.50;99.90
19898;DHT22;10111;50.814;4.572;2022-09-09T06:43:35;16.50;99.90
19898;DHT22;10111;50.814;4.572;2022-09-09T06:46:03;16.60;99.90
19898;DHT22;10111;50.814;4.572;2022-09-09T06:48:29;16.50;99.90
19898;DHT22;10111;50.814;4.572;2022-09-09T06:51:03;16.50;99.90
19898;DHT22;10111;50.814;4.572;2022-09-09T06:53:29;16.60;99.90
19898;DHT22;10111;50.814;4.572;2022-09-09T06:55:56;16.60;99.90
19898;DHT22;10111;50.814;4.572;2022-09-09T06:58:22;16.70;99.90
19898;DHT22;10111;50.814;4.572;2022-09-09T07:00:48;16.50;99.90
19898;DHT22;10111;50.814;4.572;2022-09-09T07:03:13;16.50;99.90
19898;DHT22;10111;50.814;4.572;2022-09-09T07:05:39;16.50;99.90
19898;DHT22;10111;50.814;4.572;2022-09-09T07:08:05;16.70;99.90
19898;DHT22;10111;50.814;4.572;2022-09-09T07:10:31;16.60;99.90
19898;DHT22;10111;50.814;4.572;2022-09-09T07:12:57;16.70;99.90
19898;DHT22;10111;50.814;4.572;2022-09-09T07:15:23;16.70;99.90
19898;DHT22;10111;50.814;4.572;2022-09-09T07:17:49;16.70;99.90
19898;DHT22;10111;50.814;4.572;2022-09-09T07:20:15;16.70;99.90
19898;DHT22;10111;50.814;4.572;2022-09-09T07:22:41;16.80;99.90
19898;DHT22;10111;50.814;4.572;2022-09-09T07:25:07;16.80;99.90
19898;DHT22;10111;50.814;4.572;2022-09-09T07:27:33;16.90;99.90
19898;DHT22;10111;50.814;4.572;2022-09-09T07:29:59;16.90;99.90
19898;DHT22;10111;50.814;4.572;2022-09-09T07:32:25;16.80;99.90
19898;DHT22;10111;50.814;4.572;2022-09-09T07:34:55;16.80;99.90
19898;DHT22;10111;50.814;4.572;2022-09-09T07:37:23;16.80;99.90
19898;DHT22;10111;50.814;4.572;2022-09-09T07:39:49;16.80;99.90
19898;DHT22;10111;50.814;4.572;2022-09-09T07:42:16;16.90;99.90
19898;DHT22;10111;50.814;4.572;2022-09-09T07:44:42;16.90;99.90
19898;DHT22;10111;50.814;4.572;2022-09-09T07:47:07;16.90;99.90
19898;DHT22;10111;50.814;4.572;2022-09-09T07:49:33;16.80;99.90
19898;DHT22;10111;50.814;4.572;2022-09-09T07:51:59;16.90;99.90
19898;DHT22;10111;50.814;4.572;2022-09-09T07:54:25;17.00;99.90
19898;DHT22;10111;50.814;4.572;2022-09-09T07:56:51;17.10;99.90
19898;DHT22;10111;50.814;4.572;2022-09-09T07:59:17;17.10;99.90
19898;DHT22;10111;50.814;4.572;2022-09-09T08:01:46;17.20;99.90
19898;DHT22;10111;50.814;4.572;2022-09-09T08:04:23;17.20;99.90
19898;DHT22;10111;50.814;4.572;2022-09-09T08:06:52;17.30;99.90
19898;DHT22;10111;50.814;4.572;2022-09-09T08:09:21;17.50;99.90
19898;DHT22;10111;50.814;4.572;2022-09-09T08:11:50;17.60;99.90
19898;DHT22;10111;50.814;4.572;2022-09-09T08:14:16;17.50;99.90
19898;DHT22;10111;50.814;4.572;2022-09-09T08:16:46;17.80;99.90
19898;DHT22;10111;50.814;4.572;2022-09-09T08:19:12;17.60;99.90
19898;DHT22;10111;50.814;4.572;2022-09-09T08:21:39;17.70;99.90
19898;DHT22;10111;50.814;4.572;2022-09-09T08:24:06;17.90;99.90
19898;DHT22;10111;50.814;4.572;2022-09-09T08:26:42;17.80;99.90
19898;DHT22;10111;50.814;4.572;2022-09-09T08:29:09;17.70;99.90
19898;DHT22;10111;50.814;4.572;2022-09-09T08:31:44;17.80;99.90
19898;DHT22;10111;50.814;4.572;2022-09-09T08:34:10;17.70;99.90
19898;DHT22;10111;50.814;4.572;2022-09-09T08:36:46;17.70;99.90
19898;DHT22;10111;50.814;4.572;2022-09-09T08:39:14;17.60;99.90
19898;DHT22;10111;50.814;4.572;2022-09-09T08:52:49;17.30;99.90
19898;DHT22;10111;50.814;4.572;2022-09-09T08:57:44;17.30;99.90
19898;DHT22;10111;50.814;4.572;2022-09-09T09:00:11;17.20;99.90
19898;DHT22;10111;50.814;4.572;2022-09-09T09:02:39;17.20;99.90
19898;DHT22;10111;50.814;4.572;2022-09-09T09:10:56;17.00;99.90
19898;DHT22;10111;50.814;4.572;2022-09-09T09:13:43;17.00;99.90
19898;DHT22;10111;50.814;4.572;2022-09-09T09:18:47;17.10;99.90
19898;DHT22;10111;50.814;4.572;2022-09-09T09:21:25;17.10;99.90
19898;DHT22;10111;50.814;4.572;2022-09-09T09:24:00;17.10;99.90
19898;DHT22;10111;50.814;4.572;2022-09-09T09:26:31;17.00;99.90
19898;DHT22;10111;50.814;4.572;2022-09-09T09:28:59;17.10;99.90
19898;DHT22;10111;50.814;4.572;2022-09-09T09:31:28;17.20;99.90
19898;DHT22;10111;50.814;4.572;2022-09-09T09:33:55;17.30;99.90
19898;DHT22;10111;50.814;4.572;2022-09-09T09:36:34;17.30;99.90
19898;DHT22;10111;50.814;4.572;2022-09-09T09:39:01;17.30;99.90
19898;DHT22;10111;50.814;4.572;2022-09-09T09:41:39;17.20;99.90
19898;DHT22;10111;50.814;4.572;2022-09-09T09:44:18;17.10;99.90
19898;DHT22;10111;50.814;4.572;2022-09-09T09:46:46;17.20;99.90
19898;DHT22;10111;50.814;4.572;2022-09-09T09:49:12;17.30;99.90
19898;DHT22;10111;50.814;4.572;2022-09-09T09:51:39;17.30;99.90
19898;DHT22;10111;50.814;4.572;2022-09-09T09:56:31;17.10;99.90
19898;DHT22;10111;50.814;4.572;2022-09-09T09:58:58;17.10;99.90
19898;DHT22;10111;50.814;4.572;2022-09-09T10:01:32;17.20;99.90
19898;DHT22;10111;50.814;4.572;2022-09-09T10:04:13;17.40;99.90
19898;DHT22;10111;50.814;4.572;2022-09-09T10:06:39;17.50;99.90
19898;DHT22;10111;50.814;4.572;2022-09-09T10:09:26;17.50;99.90
19898;DHT22;10111;50.814;4.572;2022-09-09T10:14:39;17.50;99.90
19898;DHT22;10111;50.814;4.572;2022-09-09T10:17:54;17.50;99.90
19898;DHT22;10111;50.814;4.572;2022-09-09T10:23:43;17.40;99.90
19898;DHT22;10111;50.814;4.572;2022-09-09T10:26:28;17.30;99.90
19898;DHT22;10111;50.814;4.572;2022-09-09T10:36:46;17.20;99.90
19898;DHT22;10111;50.814;4.572;2022-09-09T10:39:39;17.20;99.90
19898;DHT22;10111;50.814;4.572;2022-09-09T10:42:15;17.30;99.90
19898;DHT22;10111;50.814;4.572;2022-09-09T10:45:17;17.30;99.90
19898;DHT22;10111;50.814;4.572;2022-09-09T10:50:45;17.50;99.90
19898;DHT22;10111;50.814;4.572;2022-09-09T10:53:27;17.70;99.90
19898;DHT22;10111;50.814;4.572;2022-09-09T10:56:07;17.90;99.90
19898;DHT22;10111;50.814;4.572;2022-09-09T10:58:58;18.10;99.90
19898;DHT22;10111;50.814;4.572;2022-09-09T11:01:29;18.30;99.90
19898;DHT22;10111;50.814;4.572;2022-09-09T11:04:01;18.40;99.90
19898;DHT22;10111;50.814;4.572;2022-09-09T11:06:34;18.50;99.90
19898;DHT22;10111;50.814;4.572;2022-09-09T11:09:03;18.40;99.90
19898;DHT22;10111;50.814;4.572;2022-09-09T11:11:54;18.30;99.90
19898;DHT22;10111;50.814;4.572;2022-09-09T11:14:41;18.30;99.90
19898;DHT22;10111;50.814;4.572;2022-09-09T11:17:19;18.40;99.90
19898;DHT22;10111;50.814;4.572;2022-09-09T11:19:46;18.40;99.90
19898;DHT22;10111;50.814;4.572;2022-09-09T11:22:27;18.40;99.90
19898;DHT22;10111;50.814;4.572;2022-09-09T11:33:29;18.60;99.90
19898;DHT22;10111;50.814;4.572;2022-09-09T11:38:52;18.70;99.90
19898;DHT22;10111;50.814;4.572;2022-09-09T11:41:19;18.70;99.90
19898;DHT22;10111;50.814;4.572;2022-09-09T11:43:51;18.70;99.90
19898;DHT22;10111;50.814;4.572;2022-09-09T11:46:20;18.80;99.90
19898;DHT22;10111;50.814;4.572;2022-09-09T11:49:21;19.00;99.90
19898;DHT22;10111;50.814;4.572;2022-09-09T11:51:50;19.00;99.90
19898;DHT22;10111;50.814;4.572;2022-09-09T11:54:32;19.00;99.90
19898;DHT22;10111;50.814;4.572;2022-09-09T11:56:58;18.80;99.90
19898;DHT22;10111;50.814;4.572;2022-09-09T11:59:31;18.90;99.90
19898;DHT22;10111;50.814;4.572;2022-09-09T12:02:24;18.90;99.90
19898;DHT22;10111;50.814;4.572;2022-09-09T12:07:56;19.00;99.90
19898;DHT22;10111;50.814;4.572;2022-09-09T12:10:30;19.00;99.90
19898;DHT22;10111;50.814;4.572;2022-09-09T12:13:21;18.90;99.90
19898;DHT22;10111;50.814;4.572;2022-09-09T12:15:53;18.80;99.90
19898;DHT22;10111;50.814;4.572;2022-09-09T12:18:25;19.00;99.90
19898;DHT22;10111;50.814;4.572;2022-09-09T12:21:13;19.20;99.90
19898;DHT22;10111;50.814;4.572;2022-09-09T12:26:34;19.40;99.90
19898;DHT22;10111;50.814;4.572;2022-09-09T12:34:20;19.40;99.90
19898;DHT22;10111;50.814;4.572;2022-09-09T12:36:55;19.30;99.90
19898;DHT22;10111;50.814;4.572;2022-09-09T12:39:45;19.30;99.90
19898;DHT22;10111;50.814;4.572;2022-09-09T12:42:20;19.30;99.90
19898;DHT22;10111;50.814;4.572;2022-09-09T12:44:59;19.40;99.90
19898;DHT22;10111;50.814;4.572;2022-09-09T12:47:49;19.40;99.90
19898;DHT22;10111;50.814;4.572;2022-09-09T12:50:25;19.40;99.90
19898;DHT22;10111;50.814;4.572;2022-09-09T12:52:56;19.60;99.90
19898;DHT22;10111;50.814;4.572;2022-09-09T12:55:30;19.60;99.90
19898;DHT22;10111;50.814;4.572;2022-09-09T12:57:57;19.80;99.90
19898;DHT22;10111;50.814;4.572;2022-09-09T13:00:24;19.90;99.90
19898;DHT22;10111;50.814;4.572;2022-09-09T13:03:02;20.00;99.90
19898;DHT22;10111;50.814;4.572;2022-09-09T13:05:36;20.10;99.90
19898;DHT22;10111;50.814;4.572;2022-09-09T13:08:07;20.20;99.90
19898;DHT22;10111;50.814;4.572;2022-09-09T13:13:26;19.90;99.90
19898;DHT22;10111;50.814;4.572;2022-09-09T13:16:00;19.80;99.90
19898;DHT22;10111;50.814;4.572;2022-09-09T13:18:33;19.80;99.90
19898;DHT22;10111;50.814;4.572;2022-09-09T13:20:59;19.80;99.90
19898;DHT22;10111;50.814;4.572;2022-09-09T13:23:30;19.70;99.90
19898;DHT22;10111;50.814;4.572;2022-09-09T13:25:59;19.80;99.90
19898;DHT22;10111;50.814;4.572;2022-09-09T13:28:30;19.80;99.90
19898;DHT22;10111;50.814;4.572;2022-09-09T13:31:29;19.80;99.90
19898;DHT22;10111;50.814;4.572;2022-09-09T13:33:54;19.80;99.90
19898;DHT22;10111;50.814;4.572;2022-09-09T13:36:29;19.90;99.90
19898;DHT22;10111;50.814;4.572;2022-09-09T13:38:58;19.90;99.90
19898;DHT22;10111;50.814;4.572;2022-09-09T13:41:33;20.10;99.90
19898;DHT22;10111;50.814;4.572;2022-09-09T13:44:01;20.00;99.90
19898;DHT22;10111;50.814;4.572;2022-09-09T13:46:34;20.00;99.90
19898;DHT22;10111;50.814;4.572;2022-09-09T13:49:20;20.00;99.90
19898;DHT22;10111;50.814;4.572;2022-09-09T13:51:49;20.20;99.90
19898;DHT22;10111;50.814;4.572;2022-09-09T13:54:17;20.20;99.90
19898;DHT22;10111;50.814;4.572;2022-09-09T13:56:43;20.30;99.90
19898;DHT22;10111;50.814;4.572;2022-09-09T13:59:12;20.40;99.90
19898;DHT22;10111;50.814;4.572;2022-09-09T14:01:39;20.30;99.90
19898;DHT22;10111;50.814;4.572;2022-09-09T14:04:05;20.50;99.90
19898;DHT22;10111;50.814;4.572;2022-09-09T14:06:32;20.70;99.90
19898;DHT22;10111;50.814;4.572;2022-09-09T14:08:58;20.90;99.90
19898;DHT22;10111;50.814;4.572;2022-09-09T14:11:24;20.90;99.90
19898;DHT22;10111;50.814;4.572;2022-09-09T14:13:49;20.90;99.90
19898;DHT22;10111;50.814;4.572;2022-09-09T14:16:17;20.90;99.90
19898;DHT22;10111;50.814;4.572;2022-09-09T14:18:43;20.80;99.90
19898;DHT22;10111;50.814;4.572;2022-09-09T14:21:09;20.60;99.90
19898;DHT22;10111;50.814;4.572;2022-09-09T14:23:35;20.70;99.90
19898;DHT22;10111;50.814;4.572;2022-09-09T14:26:01;20.80;99.90
19898;DHT22;10111;50.814;4.572;2022-09-09T14:28:26;20.70;99.90
19898;DHT22;10111;50.814;4.572;2022-09-09T14:30:53;20.90;99.90
19898;DHT22;10111;50.814;4.572;2022-09-09T14:33:19;20.90;99.90
19898;DHT22;10111;50.814;4.572;2022-09-09T14:35:45;20.90;99.90
19898;DHT22;10111;50.814;4.572;2022-09-09T14:38:10;21.00;99.90
19898;DHT22;10111;50.814;4.572;2022-09-09T14:40:37;21.00;99.90
19898;DHT22;10111;50.814;4.572;2022-09-09T14:43:04;20.90;99.90
19898;DHT22;10111;50.814;4.572;2022-09-09T14:45:31;20.90;99.90
19898;DHT22;10111;50.814;4.572;2022-09-09T14:47:56;20.70;99.90
19898;DHT22;10111;50.814;4.572;2022-09-09T14:50:23;20.80;99.90
19898;DHT22;10111;50.814;4.572;2022-09-09T14:52:49;20.80;99.90
19898;DHT22;10111;50.814;4.572;2022-09-09T14:55:16;20.80;99.90
19898;DHT22;10111;50.814;4.572;2022-09-09T14:57:42;20.80;99.90
19898;DHT22;10111;50.814;4.572;2022-09-09T15:00:09;20.80;99.90
19898;DHT22;10111;50.814;4.572;2022-09-09T15:02:36;20.80;99.90
19898;DHT22;10111;50.814;4.572;2022-09-09T15:05:02;20.80;99.90
19898;DHT22;10111;50.814;4.572;2022-09-09T15:07:27;21.00;99.90
19898;DHT22;10111;50.814;4.572;2022-09-09T15:09:54;20.90;99.90
19898;DHT22;10111;50.814;4.572;2022-09-09T15:12:20;20.80;99.90
19898;DHT22;10111;50.814;4.572;2022-09-09T15:14:46;20.70;99.90
19898;DHT22;10111;50.814;4.572;2022-09-09T15:17:12;20.50;99.90
19898;DHT22;10111;50.814;4.572;2022-09-09T15:19:38;20.40;99.90
19898;DHT22;10111;50.814;4.572;2022-09-09T15:22:04;20.40;99.90
19898;DHT22;10111;50.814;4.572;2022-09-09T15:24:33;20.50;99.90
19898;DHT22;10111;50.814;4.572;2022-09-09T15:27:00;20.50;99.90
19898;DHT22;10111;50.814;4.572;2022-09-09T15:29:25;20.50;99.90
19898;DHT22;10111;50.814;4.572;2022-09-09T15:31:52;20.30;99.90
19898;DHT22;10111;50.814;4.572;2022-09-09T15:34:18;20.30;99.90
19898;DHT22;10111;50.814;4.572;2022-09-09T15:36:45;20.40;99.90
19898;DHT22;10111;50.814;4.572;2022-09-09T15:39:15;20.50;99.90
19898;DHT22;10111;50.814;4.572;2022-09-09T15:41:45;20.30;99.90
19898;DHT22;10111;50.814;4.572;2022-09-09T15:44:12;20.20;99.90
19898;DHT22;10111;50.814;4.572;2022-09-09T15:46:39;20.10;99.90
19898;DHT22;10111;50.814;4.572;2022-09-09T15:49:13;20.10;99.90
19898;DHT22;10111;50.814;4.572;2022-09-09T15:51:41;20.10;99.90
19898;DHT22;10111;50.814;4.572;2022-09-09T15:54:08;20.00;99.90
19898;DHT22;10111;50.814;4.572;2022-09-09T15:56:34;20.00;99.90
19898;DHT22;10111;50.814;4.572;2022-09-09T15:59:01;20.10;99.90
19898;DHT22;10111;50.814;4.572;2022-09-09T16:01:29;20.20;99.90
19898;DHT22;10111;50.814;4.572;2022-09-09T16:03:56;20.10;99.90
19898;DHT22;10111;50.814;4.572;2022-09-09T16:06:23;20.00;99.90
19898;DHT22;10111;50.814;4.572;2022-09-09T16:08:51;20.10;99.90
19898;DHT22;10111;50.814;4.572;2022-09-09T16:11:27;20.10;99.90
19898;DHT22;10111;50.814;4.572;2022-09-09T16:13:54;20.10;99.90
19898;DHT22;10111;50.814;4.572;2022-09-09T16:16:24;20.00;99.90
19898;DHT22;10111;50.814;4.572;2022-09-09T16:18:52;19.80;99.90
19898;DHT22;10111;50.814;4.572;2022-09-09T16:21:27;19.80;99.90
19898;DHT22;10111;50.814;4.572;2022-09-09T16:23:56;19.80;99.90
19898;DHT22;10111;50.814;4.572;2022-09-09T16:26:22;19.70;99.90
19898;DHT22;10111;50.814;4.572;2022-09-09T16:28:49;19.80;99.90
19898;DHT22;10111;50.814;4.572;2022-09-09T16:31:20;19.80;99.90
19898;DHT22;10111;50.814;4.572;2022-09-09T16:33:46;19.80;99.90
19898;DHT22;10111;50.814;4.572;2022-09-09T16:36:15;19.80;99.90
19898;DHT22;10111;50.814;4.572;2022-09-09T16:38:42;19.80;99.90
19898;DHT22;10111;50.814;4.572;2022-09-09T16:41:10;19.80;99.90
19898;DHT22;10111;50.814;4.572;2022-09-09T16:43:36;19.80;99.90
19898;DHT22;10111;50.814;4.572;2022-09-09T16:46:32;19.90;99.90
19898;DHT22;10111;50.814;4.572;2022-09-09T16:49:01;19.80;99.90
19898;DHT22;10111;50.814;4.572;2022-09-09T16:51:28;19.70;99.90
19898;DHT22;10111;50.814;4.572;2022-09-09T16:53:54;19.60;99.90
19898;DHT22;10111;50.814;4.572;2022-09-09T16:56:23;19.60;99.90
19898;DHT22;10111;50.814;4.572;2022-09-09T16:58:56;19.40;99.90
19898;DHT22;10111;50.814;4.572;2022-09-09T17:01:23;19.30;99.90
19898;DHT22;10111;50.814;4.572;2022-09-09T17:03:56;19.30;99.90
19898;DHT22;10111;50.814;4.572;2022-09-09T17:06:22;19.30;99.90
19898;DHT22;10111;50.814;4.572;2022-09-09T17:08:54;19.20;99.90
19898;DHT22;10111;50.814;4.572;2022-09-09T17:11:20;19.10;99.90
19898;DHT22;10111;50.814;4.572;2022-09-09T17:13:46;19.00;99.90
19898;DHT22;10111;50.814;4.572;2022-09-09T17:16:14;19.00;99.90
19898;DHT22;10111;50.814;4.572;2022-09-09T17:18:40;19.00;99.90
19898;DHT22;10111;50.814;4.572;2022-09-09T17:21:09;18.80;99.90
19898;DHT22;10111;50.814;4.572;2022-09-09T17:23:36;18.70;99.90
19898;DHT22;10111;50.814;4.572;2022-09-09T17:26:05;18.70;99.90
19898;DHT22;10111;50.814;4.572;2022-09-09T17:28:31;18.80;99.90
19898;DHT22;10111;50.814;4.572;2022-09-09T17:30:58;18.80;99.90
19898;DHT22;10111;50.814;4.572;2022-09-09T17:33:27;18.80;99.90
19898;DHT22;10111;50.814;4.572;2022-09-09T17:35:53;18.80;99.90
19898;DHT22;10111;50.814;4.572;2022-09-09T17:38:19;18.80;99.90
19898;DHT22;10111;50.814;4.572;2022-09-09T17:40:45;18.60;99.90
19898;DHT22;10111;50.814;4.572;2022-09-09T17:43:11;18.60;99.90
19898;DHT22;10111;50.814;4.572;2022-09-09T17:45:36;18.60;99.90
19898;DHT22;10111;50.814;4.572;2022-09-09T17:48:02;18.50;99.90